createdAt,value
2023-05-15T00:02:40.793Z,2.88
2023-05-15T00:07:38.662Z,2.80
2023-05-15T00:12:38.573Z,2.83
2023-05-15T00:17:39.632Z,2.65
2023-05-15T00:22:40.599Z,2.90
2023-05-15T00:27:40.547Z,3.38
2023-05-15T00:32:42.760Z,2.78
2023-05-15T00:37:43.261Z,2.95
2023-05-15T00:42:45.621Z,3.20
2023-05-15T00:47:47.610Z,2.78
2023-05-15T00:52:46.021Z,2.95
2023-05-15T00:57:48.484Z,3.38
2023-05-15T01:02:49.818Z,3.50
2023-05-15T01:08:19.473Z,3.55
2023-05-15T01:13:21.438Z,3.78
2023-05-15T01:18:21.778Z,3.67
2023-05-15T01:23:42.758Z,3.53
2023-05-15T01:28:51.240Z,3.08
2023-05-15T01:34:05.370Z,2.92
2023-05-15T01:39:06.181Z,3.10
2023-05-15T01:44:20.490Z,3.40
2023-05-15T01:49:19.366Z,3.30
2023-05-15T01:54:21.133Z,3.00
2023-05-15T01:59:22.650Z,3.33
2023-05-15T02:04:22.819Z,2.80
2023-05-15T02:09:24.952Z,2.83
2023-05-15T02:14:26.625Z,2.80
2023-05-15T02:19:25.060Z,2.90
2023-05-15T02:24:25.911Z,3.80
2023-05-15T02:29:34.497Z,3.88
2023-05-15T02:34:52.369Z,3.30
2023-05-15T02:39:58.954Z,3.45
2023-05-15T02:45:00.319Z,3.10
2023-05-15T02:50:00.674Z,3.53
2023-05-15T02:54:59.654Z,3.40
2023-05-15T03:00:01.141Z,3.40
2023-05-15T03:05:02.370Z,3.97
2023-05-15T03:10:01.471Z,4.07
2023-05-15T03:15:02.650Z,3.85
2023-05-15T03:20:16.509Z,3.42
2023-05-15T03:25:18.442Z,3.58
2023-05-15T03:30:19.044Z,4.25
2023-05-15T03:35:17.189Z,3.78
2023-05-15T03:40:19.331Z,4.10
2023-05-15T03:45:18.298Z,4.00
2023-05-15T03:50:19.867Z,4.88
2023-05-15T03:55:23.208Z,4.10
2023-05-15T04:00:40.882Z,4.70
2023-05-15T04:05:44.003Z,3.60
2023-05-15T04:10:45.466Z,4.13
2023-05-15T04:15:45.023Z,3.25
2023-05-15T04:20:43.082Z,4.00
2023-05-15T04:25:47.134Z,3.63
2023-05-15T04:30:47.615Z,3.05
2023-05-15T04:35:48.017Z,3.53
2023-05-15T04:40:49.370Z,2.92
2023-05-15T04:45:50.931Z,3.25
2023-05-15T04:50:50.075Z,3.28
2023-05-15T04:55:51.383Z,3.47
2023-05-15T05:00:48.677Z,3.92
2023-05-15T05:05:47.401Z,3.53
2023-05-15T05:10:49.611Z,4.30
2023-05-15T05:15:50.456Z,3.70
2023-05-15T05:21:02.056Z,4.85
2023-05-15T05:26:04.154Z,4.30
2023-05-15T05:31:04.027Z,4.72
2023-05-15T05:36:05.738Z,4.47
2023-05-15T05:41:04.421Z,4.15
2023-05-15T05:46:04.967Z,4.93
2023-05-15T05:51:05.849Z,3.78
2023-05-15T05:56:04.843Z,3.15
2023-05-15T06:01:05.550Z,3.55
2023-05-15T06:06:06.047Z,3.63
2023-05-15T06:11:04.441Z,3.28
2023-05-15T06:16:07.938Z,3.35
2023-05-15T06:21:10.027Z,4.05
2023-05-15T06:26:10.466Z,3.35
2023-05-15T06:31:08.716Z,2.80
2023-05-15T06:36:06.648Z,3.88
2023-05-15T06:41:08.015Z,3.25
2023-05-15T06:46:08.283Z,3.08
2023-05-15T06:51:09.590Z,2.90
2023-05-15T06:56:08.427Z,3.45
2023-05-15T07:01:09.144Z,3.55
2023-05-15T07:06:07.372Z,3.00
2023-05-15T07:11:09.699Z,3.05
2023-05-15T07:16:08.258Z,3.40
2023-05-15T07:21:19.095Z,3.00
2023-05-15T07:26:27.932Z,3.15
2023-05-15T07:31:37.981Z,3.30
2023-05-15T07:36:38.112Z,3.03
2023-05-15T07:41:39.034Z,2.83
2023-05-15T07:46:39.847Z,2.80
2023-05-15T07:51:40.879Z,2.97
2023-05-15T07:56:47.258Z,3.40
2023-05-15T08:01:47.455Z,3.20
2023-05-15T08:06:47.139Z,2.65
2023-05-15T08:11:51.337Z,2.95
2023-05-15T08:16:54.370Z,3.35
2023-05-15T08:21:52.401Z,3.92
2023-05-15T08:26:55.750Z,3.40
2023-05-15T08:32:09.834Z,2.45
2023-05-15T08:37:18.362Z,2.65
2023-05-15T08:42:19.165Z,2.60
2023-05-15T08:47:17.106Z,2.10
2023-05-15T08:52:18.582Z,2.20
2023-05-15T08:57:19.170Z,2.70
2023-05-15T09:02:20.055Z,2.80
2023-05-15T09:07:20.239Z,2.58
2023-05-15T09:12:21.408Z,2.05
2023-05-15T09:17:21.897Z,2.60
2023-05-15T09:22:23.673Z,2.53
2023-05-15T09:27:23.153Z,5.00
2023-05-15T09:32:28.489Z,2.70
2023-05-15T09:37:36.364Z,2.63
2023-05-15T09:42:36.860Z,2.20
2023-05-15T09:47:38.971Z,2.75
2023-05-15T09:52:41.024Z,2.70
2023-05-15T09:57:39.316Z,2.30
2023-05-15T10:02:39.198Z,1.95
2023-05-15T10:07:38.848Z,2.38
2023-05-15T10:12:39.230Z,2.50
2023-05-15T10:17:37.545Z,2.00
2023-05-15T10:22:37.160Z,2.30
2023-05-15T10:27:36.992Z,2.58
2023-05-15T10:32:38.151Z,2.25
2023-05-15T10:37:38.989Z,2.33
2023-05-15T10:42:39.739Z,3.22
2023-05-15T10:47:41.108Z,2.70
2023-05-15T10:52:40.403Z,2.28
2023-05-15T10:57:38.908Z,2.42
2023-05-15T11:02:42.996Z,2.38
2023-05-15T11:07:42.280Z,2.97
2023-05-15T11:13:00.747Z,2.42
2023-05-15T11:18:08.022Z,1.67
2023-05-15T11:23:25.665Z,1.90
2023-05-15T11:28:26.957Z,1.80
2023-05-15T11:33:30.346Z,1.70
2023-05-15T11:38:28.568Z,2.53
2023-05-15T11:43:26.746Z,2.47
2023-05-15T11:48:47.926Z,2.10
2023-05-15T11:53:47.175Z,2.15
2023-05-15T11:58:54.534Z,2.10
2023-05-15T12:03:55.208Z,1.52
2023-05-15T12:08:57.453Z,2.90
2023-05-15T12:13:58.361Z,2.20
2023-05-15T12:19:03.210Z,2.58
2023-05-15T12:29:03.633Z,2.13
2023-05-15T12:34:05.176Z,2.17
2023-05-15T12:39:08.593Z,1.90
2023-05-15T12:44:07.462Z,2.13
2023-05-15T12:49:10.286Z,2.78
2023-05-15T12:54:16.800Z,2.05
2023-05-15T12:59:20.418Z,2.50
2023-05-15T13:04:20.657Z,2.60
2023-05-15T13:09:29.320Z,2.30
2023-05-15T13:14:33.446Z,2.67
2023-05-15T13:19:33.873Z,2.22
2023-05-15T13:24:33.741Z,1.92
2023-05-15T13:29:34.314Z,2.80
2023-05-15T13:34:36.370Z,2.72
2023-05-15T13:39:34.567Z,2.30
2023-05-15T13:44:37.648Z,2.55
2023-05-15T13:49:35.624Z,2.70
2023-05-15T13:54:36.528Z,2.72
2023-05-15T13:59:37.917Z,9.48
2023-05-15T14:04:42.330Z,3.60
2023-05-15T14:09:51.408Z,2.97
2023-05-15T14:14:52.605Z,1.50
2023-05-15T14:20:03.168Z,2.28
2023-05-15T14:25:02.227Z,2.13
2023-05-15T14:30:06.098Z,2.10
2023-05-15T14:35:05.895Z,2.42
2023-05-15T14:40:08.109Z,2.08
2023-05-15T14:45:13.306Z,2.43
2023-05-15T14:50:21.792Z,2.33
2023-05-15T14:55:26.339Z,2.45
2023-05-15T15:12:57.008Z,2.53
2023-05-15T15:17:55.855Z,2.03
2023-05-15T15:23:00.062Z,2.10
2023-05-15T15:33:08.223Z,2.13
2023-05-15T15:38:24.104Z,4.38
2023-05-15T15:43:22.077Z,7.00
2023-05-15T15:48:23.583Z,3.10
2023-05-15T15:53:25.464Z,2.22
2023-05-15T15:58:25.345Z,2.50
2023-05-15T16:03:26.390Z,4.03
2023-05-15T16:20:00.020Z,1.98
2023-05-15T16:24:58.932Z,2.42
2023-05-15T16:30:07.999Z,2.55
2023-05-15T16:35:06.899Z,4.65
2023-05-15T16:40:37.881Z,4.80
2023-05-15T17:04:24.438Z,2.38
2023-05-15T17:09:29.965Z,2.38
2023-05-15T17:26:33.171Z,3.72
2023-05-15T17:31:33.403Z,2.40
2023-05-15T17:36:31.267Z,2.50
2023-05-15T17:41:56.123Z,6.10
2023-05-15T17:46:57.032Z,10.15
2023-05-15T17:52:02.641Z,14.60
2023-05-15T17:57:04.935Z,11.52
2023-05-15T18:08:17.765Z,5.72
2023-05-15T18:13:31.412Z,5.90
2023-05-15T18:19:15.329Z,4.05
2023-05-15T18:24:21.213Z,4.72
2023-05-15T18:29:21.123Z,4.13
2023-05-15T18:34:25.570Z,3.40
2023-05-15T18:39:29.165Z,3.65
2023-05-15T18:44:34.343Z,3.28
2023-05-15T18:49:57.358Z,3.45
2023-05-15T18:55:01.557Z,7.25
2023-05-15T19:00:04.197Z,9.10
2023-05-15T19:05:06.503Z,5.43
2023-05-15T19:10:04.121Z,3.75
2023-05-15T19:16:02.576Z,3.70
2023-05-15T19:26:38.483Z,4.75
2023-05-15T19:37:35.735Z,2.72
2023-05-15T19:42:36.960Z,3.17
2023-05-15T19:47:36.546Z,2.90
2023-05-15T19:52:36.513Z,5.50
2023-05-15T19:57:41.183Z,5.00
2023-05-15T20:03:53.555Z,2.80
2023-05-15T20:21:28.335Z,3.97
2023-05-15T20:26:43.742Z,2.60
2023-05-15T20:31:45.234Z,2.72
2023-05-15T20:36:56.906Z,2.85
2023-05-15T20:41:54.697Z,3.05
2023-05-15T20:53:10.144Z,2.70
2023-05-15T20:58:15.442Z,3.17
2023-05-15T21:03:20.478Z,3.25
2023-05-15T21:08:28.105Z,4.22
2023-05-15T21:13:30.496Z,4.45
2023-05-15T21:18:33.866Z,6.40
2023-05-15T21:23:59.940Z,3.47
2023-05-15T21:34:22.353Z,2.72
2023-05-15T21:39:27.563Z,3.00
2023-05-15T21:44:28.030Z,3.42
2023-05-15T21:49:25.903Z,2.92
2023-05-15T21:59:36.459Z,2.92
2023-05-15T22:04:37.964Z,3.50
2023-05-15T22:09:39.464Z,3.13
2023-05-15T22:14:59.076Z,3.58
2023-05-15T22:20:08.013Z,3.38
2023-05-15T22:25:16.218Z,3.50
2023-05-15T22:30:13.606Z,3.53
2023-05-15T22:35:16.238Z,3.50
2023-05-15T22:40:32.201Z,3.53
2023-05-15T22:45:36.570Z,2.88
2023-05-15T22:50:37.874Z,2.60
2023-05-15T22:55:39.431Z,2.72
2023-05-15T23:00:52.651Z,2.80
2023-05-15T23:05:56.364Z,2.30
2023-05-15T23:10:56.241Z,2.83
2023-05-15T23:15:58.103Z,3.08
2023-05-15T23:20:58.987Z,3.92
2023-05-15T23:26:03.189Z,2.90
2023-05-15T23:36:04.317Z,2.42
2023-05-15T23:41:15.144Z,2.80
2023-05-15T23:46:20.571Z,2.63
2023-05-15T23:51:21.313Z,3.38
2023-05-15T23:56:24.188Z,2.70
